Time;durP1;ratioP1;P1;durP2;ratioP2;P2;SDS_P1;SDS_P2;PMS_P1;PMS_P2;Temp;Humidity;BMP_temperature;BMP_pressure;BME280_temperature;BME280_humidity;BME280_pressure;Samples;Min_cycle;Max_cycle;Signal;HPM_P1;HPM_P2
2023/03/01 00:00:40;;;;;;;;;17.75;14.00;;;;;5.90;37.73;102238.47;5012338;28;45351;-64
2023/03/01 00:03:05;;;;;;;;;16.50;14.75;;;;;5.87;37.26;102232.06;5018223;28;45791;-68
2023/03/01 00:05:31;;;;;;;;;21.00;19.25;;;;;5.85;37.78;102239.00;5018269;28;45461;-66
2023/03/01 00:07:57;;;;;;;;;24.50;16.75;;;;;5.75;38.05;102240.06;5018427;28;45516;-68
2023/03/01 00:10:22;;;;;;;;;23.50;18.00;;;;;5.77;38.05;102238.44;5009913;28;45265;-71
2023/03/01 00:12:48;;;;;;;;;11.00;9.50;;;;;5.76;37.87;102241.00;5029330;28;45996;-65
2023/03/01 00:15:13;;;;;;;;;16.75;14.50;;;;;5.70;37.87;102239.75;5036092;28;45176;-65
2023/03/01 00:17:38;;;;;;;;;23.50;18.00;;;;;5.70;38.08;102242.41;5012382;28;45129;-69
2023/03/01 00:20:09;;;;;;;;;25.00;20.75;;;;;5.73;38.42;102239.97;5028899;28;45231;-65
2023/03/01 00:22:36;;;;;;;;;20.00;15.00;;;;;5.77;38.00;102242.84;5031498;28;45629;-63
2023/03/01 00:25:01;;;;;;;;;22.50;19.50;;;;;5.58;38.19;102212.41;5029731;28;44943;-64
2023/03/01 00:27:26;;;;;;;;;25.50;22.00;;;;;5.69;38.80;102247.59;5030950;28;45081;-67
2023/03/01 00:29:52;;;;;;;;;16.50;14.00;;;;;5.65;38.36;102234.94;5031000;28;45023;-65
2023/03/01 00:32:17;;;;;;;;;24.00;18.50;;;;;5.66;38.51;102243.00;5028798;28;45114;-66
2023/03/01 00:34:54;;;;;;;;;25.50;17.75;;;;;5.66;38.57;102232.41;5029482;28;44935;-65
2023/03/01 00:37:23;;;;;;;;;14.75;13.00;;;;;5.65;38.74;102246.47;5030164;28;44923;-67
2023/03/01 00:39:49;;;;;;;;;21.25;17.50;;;;;5.62;38.50;102245.34;5029582;28;45273;-63
2023/03/01 00:42:15;;;;;;;;;21.25;18.25;;;;;5.59;38.86;102243.38;5030087;28;46296;-62
2023/03/01 00:44:40;;;;;;;;;24.00;16.00;;;;;5.58;38.49;102238.00;5032463;28;44954;-66
2023/03/01 00:47:06;;;;;;;;;20.00;18.00;;;;;5.55;39.10;102236.03;5034311;28;45132;-66
2023/03/01 00:49:31;;;;;;;;;18.25;16.50;;;;;5.48;38.98;102236.41;5034543;28;45003;-67
2023/03/01 00:51:56;;;;;;;;;13.00;13.00;;;;;5.51;38.82;102248.16;5034606;28;53758;-69
2023/03/01 00:54:22;;;;;;;;;24.75;21.50;;;;;5.49;39.42;102243.53;5035331;28;45003;-66
2023/03/01 00:56:47;;;;;;;;;20.00;17.50;;;;;5.34;39.29;102224.81;5016358;28;45204;-70
2023/03/01 00:59:13;;;;;;;;;25.25;20.25;;;;;5.48;39.22;102241.72;5015158;28;45346;-70
2023/03/01 01:01:38;;;;;;;;;23.00;19.00;;;;;5.34;39.36;102216.88;5034229;28;45309;-69
2023/03/01 01:04:07;;;;;;;;;15.25;14.25;;;;;5.45;39.04;102245.06;5035928;28;45109;-69
2023/03/01 01:06:38;;;;;;;;;23.50;15.25;;;;;5.49;39.33;102247.13;5040712;28;45026;-69
2023/03/01 01:09:08;;;;;;;;;16.00;14.75;;;;;5.37;39.69;102221.47;5041058;28;45429;-67
2023/03/01 01:11:37;;;;;;;;;20.25;19.25;;;;;5.43;39.02;102236.09;5021552;28;47419;-65
2023/03/01 01:14:02;;;;;;;;;24.50;18.00;;;;;5.42;39.11;102235.97;5039517;28;45136;-64
2023/03/01 01:16:28;;;;;;;;;18.00;18.00;;;;;5.18;39.52;102206.94;5021795;28;45034;-69
2023/03/01 01:18:55;;;;;;;;;17.25;16.25;;;;;5.32;39.51;102240.59;5038580;28;45010;-72
2023/03/01 01:21:24;;;;;;;;;17.25;15.25;;;;;5.33;39.84;102236.25;5038578;28;46873;-68
2023/03/01 01:23:49;;;;;;;;;20.00;18.25;;;;;5.34;39.55;102230.13;5037443;28;45052;-67
2023/03/01 01:26:18;;;;;;;;;20.75;18.75;;;;;5.29;39.51;102232.44;5035864;28;45098;-69
2023/03/01 01:28:44;;;;;;;;;26.25;22.00;;;;;5.25;40.09;102219.78;5035024;28;45280;-64
2023/03/01 01:31:09;;;;;;;;;25.25;17.75;;;;;5.31;39.74;102225.53;5034161;28;45315;-67
2023/03/01 01:33:37;;;;;;;;;18.25;15.50;;;;;5.33;39.58;102226.56;5033171;28;44998;-69
2023/03/01 01:36:03;;;;;;;;;13.25;13.25;;;;;5.20;39.64;102185.81;5033202;28;45056;-65
2023/03/01 01:38:28;;;;;;;;;21.00;17.50;;;;;5.33;39.58;102210.66;5032407;28;45092;-66
2023/03/01 01:40:54;;;;;;;;;17.50;13.50;;;;;5.32;39.92;102213.19;5031872;28;45223;-68
2023/03/01 01:43:28;;;;;;;;;19.50;15.50;;;;;5.33;39.89;102207.09;5034075;28;45169;-64
2023/03/01 01:46:04;;;;;;;;;13.50;12.75;;;;;5.32;40.08;102199.94;5033722;28;45095;-68
2023/03/01 01:48:40;;;;;;;;;24.00;19.00;;;;;5.36;40.14;102207.28;5032263;28;45240;-64
2023/03/01 01:51:09;;;;;;;;;21.33;20.00;;;;;5.35;40.22;102200.16;5012895;28;46306;-66
2023/03/01 01:53:36;;;;;;;;;18.00;14.00;;;;;5.33;40.19;102199.16;5031925;28;44987;-63
2023/03/01 01:56:02;;;;;;;;;23.50;19.50;;;;;5.37;39.93;102202.94;5032826;28;45243;-64
2023/03/01 01:58:30;;;;;;;;;19.75;15.25;;;;;5.32;40.40;102199.94;5030562;28;45134;-66
2023/03/01 02:00:56;;;;;;;;;19.25;18.00;;;;;5.21;39.79;102177.97;5031018;28;45956;-71
2023/03/01 02:03:33;;;;;;;;;25.00;19.50;;;;;5.34;39.54;102203.63;5030795;28;44947;-65
2023/03/01 02:06:28;;;;;;;;;18.75;15.25;;;;;5.33;40.00;102201.81;5030849;28;45434;-75
2023/03/01 02:08:57;;;;;;;;;18.75;17.00;;;;;5.34;39.50;102199.22;5023181;28;45278;-70
2023/03/01 02:11:22;;;;;;;;;23.25;19.00;;;;;5.32;40.32;102205.25;5031558;28;45145;-67
2023/03/01 02:13:48;;;;;;;;;24.50;17.00;;;;;5.30;39.91;102198.94;5038193;28;45129;-67
2023/03/01 02:16:15;;;;;;;;;22.50;15.25;;;;;5.34;39.98;102206.28;5030433;28;45195;-64
2023/03/01 02:18:42;;;;;;;;;27.75;21.75;;;;;5.28;39.91;102198.81;5033066;28;45068;-63
2023/03/01 02:21:22;;;;;;;;;19.50;16.50;;;;;5.23;40.42;102194.94;5033857;28;45654;-65
2023/03/01 02:23:47;;;;;;;;;22.75;21.00;;;;;5.15;40.51;102180.22;5015274;28;45052;-64
2023/03/01 02:26:32;;;;;;;;;17.25;15.00;;;;;5.14;39.91;102186.31;5031759;28;45085;-65
2023/03/01 02:28:57;;;;;;;;;27.00;19.00;;;;;5.01;40.72;102163.31;5033013;28;45076;-65
2023/03/01 02:31:41;;;;;;;;;26.75;22.25;;;;;4.95;40.33;102149.63;5031812;28;46106;-67
2023/03/01 02:34:12;;;;;;;;;17.25;16.50;;;;;5.07;40.94;102165.50;5033052;28;45166;-66
2023/03/01 02:36:43;;;;;;;;;26.75;21.00;;;;;5.10;41.18;102186.91;5032887;28;44942;-63
2023/03/01 02:39:16;;;;;;;;;18.00;16.75;;;;;4.92;40.72;102155.63;5031778;28;44910;-63
2023/03/01 02:41:46;;;;;;;;;19.00;18.00;;;;;5.09;40.21;102175.38;5032102;28;45183;-65
2023/03/01 02:44:12;;;;;;;;;19.25;16.50;;;;;5.07;40.83;102174.34;5032862;28;45115;-66
2023/03/01 02:46:52;;;;;;;;;13.50;13.50;;;;;5.06;40.92;102176.88;5031098;28;45101;-67
2023/03/01 02:49:28;;;;;;;;;22.00;18.00;;;;;5.03;40.70;102168.72;5031837;28;44986;-64
2023/03/01 02:52:24;;;;;;;;;21.25;16.75;;;;;4.97;41.49;102167.47;5032027;28;45732;-64
2023/03/01 02:54:58;;;;;;;;;19.00;17.00;;;;;4.95;40.74;102166.47;5028009;28;45148;-65
2023/03/01 02:57:27;;;;;;;;;22.50;19.25;;;;;4.98;41.28;102161.38;5029023;28;45657;-66
2023/03/01 02:59:54;;;;;;;;;27.50;17.50;;;;;4.88;41.50;102150.00;5030461;28;45123;-65
2023/03/01 03:02:35;;;;;;;;;23.50;20.00;;;;;4.96;40.88;102162.97;5029181;28;45639;-64
2023/03/01 03:05:05;;;;;;;;;23.75;17.00;;;;;4.92;41.05;102154.72;5030745;28;45092;-64
2023/03/01 03:07:32;;;;;;;;;27.50;20.00;;;;;4.89;41.20;102150.13;5030348;28;45321;-65
2023/03/01 03:09:58;;;;;;;;;26.00;21.00;;;;;4.85;41.46;102142.78;5029201;28;45211;-68
2023/03/01 03:12:23;;;;;;;;;22.00;16.50;;;;;4.91;41.54;102152.88;5030568;28;45746;-64
2023/03/01 03:14:48;;;;;;;;;24.75;21.00;;;;;4.82;41.41;102142.56;5029647;28;45327;-64
2023/03/01 03:17:14;;;;;;;;;24.00;19.50;;;;;4.83;41.77;102143.47;5032346;28;45555;-64
2023/03/01 03:19:39;;;;;;;;;23.00;19.00;;;;;4.83;41.80;102140.81;5030007;28;45216;-65
2023/03/01 03:22:04;;;;;;;;;22.00;19.75;;;;;4.83;41.51;102140.81;5031094;28;53918;-65
2023/03/01 03:24:37;;;;;;;;;24.75;16.00;;;;;4.85;42.07;102145.44;5031555;28;45738;-67
2023/03/01 03:27:03;;;;;;;;;28.50;17.00;;;;;4.87;41.66;102142.88;5031111;28;45096;-65
2023/03/01 03:29:28;;;;;;;;;21.50;19.50;;;;;4.79;41.77;102127.34;5021729;28;45192;-66
2023/03/01 03:31:53;;;;;;;;;28.50;19.25;;;;;4.84;41.99;102150.59;5030328;28;45251;-66
2023/03/01 03:34:19;;;;;;;;;20.00;13.75;;;;;4.83;41.29;102149.66;5029215;28;45093;-64
2023/03/01 03:36:44;;;;;;;;;19.75;16.25;;;;;4.86;41.78;102144.59;5034671;28;45104;-67
2023/03/01 03:39:09;;;;;;;;;29.25;20.50;;;;;4.86;41.79;102136.66;5030179;28;45248;-65
2023/03/01 03:41:35;;;;;;;;;22.00;21.50;;;;;4.89;41.81;102139.53;5011526;28;47977;-63
2023/03/01 03:44:01;;;;;;;;;22.75;16.75;;;;;4.87;41.24;102135.84;5029384;28;45021;-63
2023/03/01 03:46:26;;;;;;;;;23.25;20.25;;;;;4.87;41.66;102138.50;5035796;28;45128;-69
2023/03/01 03:48:51;;;;;;;;;24.75;20.75;;;;;4.86;41.53;102125.16;5030380;28;44932;-64
2023/03/01 03:51:18;;;;;;;;;32.25;19.25;;;;;4.94;41.53;102127.53;5026988;28;46506;-66
2023/03/01 03:53:44;;;;;;;;;22.75;21.75;;;;;4.86;41.58;102120.75;5028906;28;45286;-67
2023/03/01 03:56:11;;;;;;;;;19.75;16.00;;;;;4.64;41.93;102093.53;5010833;28;45404;-67
2023/03/01 03:58:36;;;;;;;;;18.75;18.25;;;;;4.72;41.54;102121.50;5030621;28;45085;-65
2023/03/01 04:01:02;;;;;;;;;28.25;18.25;;;;;4.73;42.28;102136.56;5024584;28;45455;-65
2023/03/01 04:03:30;;;;;;;;;21.50;17.75;;;;;4.71;42.24;102128.53;5032162;28;45246;-68
2023/03/01 04:05:57;;;;;;;;;24.75;19.25;;;;;4.75;41.78;102132.31;5026881;28;45227;-68
2023/03/01 04:08:23;;;;;;;;;21.50;16.75;;;;;4.71;41.83;102115.28;5023864;28;45392;-64
2023/03/01 04:10:51;;;;;;;;;17.50;15.75;;;;;4.67;42.36;102128.19;5029871;28;45725;-65
2023/03/01 04:13:21;;;;;;;;;28.25;18.00;;;;;4.75;41.97;102146.50;5031484;28;45005;-67
2023/03/01 04:15:50;;;;;;;;;21.75;20.00;;;;;4.68;42.16;102141.53;5033497;28;45458;-65
2023/03/01 04:18:18;;;;;;;;;30.50;19.00;;;;;4.57;42.17;102140.78;5025646;28;45464;-67
2023/03/01 04:20:44;;;;;;;;;20.50;18.25;;;;;4.48;42.09;102128.59;5026425;28;46733;-64
2023/03/01 04:23:21;;;;;;;;;28.50;20.25;;;;;4.57;42.33;102142.47;5032300;28;45140;-64
2023/03/01 04:25:53;;;;;;;;;26.50;18.25;;;;;4.54;42.44;102135.25;5035529;28;45376;-68
2023/03/01 04:28:30;;;;;;;;;22.50;17.00;;;;;4.53;42.77;102128.09;5012867;28;45554;-68
2023/03/01 04:30:57;;;;;;;;;23.25;19.75;;;;;4.50;42.77;102124.31;5029735;28;45725;-64
2023/03/01 04:33:24;;;;;;;;;22.50;16.50;;;;;4.54;42.64;102131.69;5034416;28;45162;-64
2023/03/01 04:35:49;;;;;;;;;18.25;17.50;;;;;4.52;42.51;102122.69;5038553;28;45123;-65
2023/03/01 04:38:16;;;;;;;;;23.25;21.75;;;;;4.44;42.58;102119.50;5013379;28;44925;-65
2023/03/01 04:40:42;;;;;;;;;25.00;21.75;;;;;4.47;41.96;102127.69;5035080;28;45968;-66
2023/03/01 04:43:09;;;;;;;;;24.00;18.50;;;;;4.42;42.74;102126.41;5035215;28;45035;-68
2023/03/01 04:45:35;;;;;;;;;18.00;16.75;;;;;4.45;43.73;102129.28;5043075;28;45010;-71
2023/03/01 04:48:01;;;;;;;;;21.50;17.00;;;;;4.39;42.70;102115.63;5032009;28;45242;-68
2023/03/01 04:50:27;;;;;;;;;29.25;20.00;;;;;4.38;42.88;102116.41;5029173;28;45131;-68
2023/03/01 04:52:53;;;;;;;;;27.75;24.75;;;;;4.32;43.44;102115.94;5012823;28;45355;-68
2023/03/01 04:55:18;;;;;;;;;27.25;23.25;;;;;4.29;43.67;102116.66;5021544;28;45463;-70
2023/03/01 04:57:44;;;;;;;;;13.25;9.00;;;;;4.22;43.24;102102.06;5032853;28;44942;-67
2023/03/01 05:00:19;;;;;;;;;22.50;21.50;;;;;4.32;43.83;102108.00;5022454;28;45910;-66
2023/03/01 05:02:55;;;;;;;;;28.75;26.25;;;;;4.34;43.51;102115.28;5034150;28;45873;-72
2023/03/01 05:05:29;;;;;;;;;23.25;22.00;;;;;4.27;43.37;102101.47;5032867;28;45105;-66
2023/03/01 05:08:06;;;;;;;;;24.00;22.00;;;;;4.26;43.36;102103.22;5033126;28;44921;-73
2023/03/01 05:10:35;;;;;;;;;20.75;20.25;;;;;4.25;43.59;102112.84;5033665;28;45039;-70
2023/03/01 05:13:01;;;;;;;;;25.00;21.00;;;;;4.15;43.59;102099.75;5029210;28;45135;-71
2023/03/01 05:15:29;;;;;;;;;25.75;21.00;;;;;4.24;43.66;102113.66;5034198;28;45045;-70
2023/03/01 05:17:58;;;;;;;;;21.25;18.75;;;;;4.27;43.83;102114.69;5037540;28;44938;-70
2023/03/01 05:20:24;;;;;;;;;24.25;21.75;;;;;4.29;43.36;102110.44;5030884;28;45490;-66
2023/03/01 05:22:50;;;;;;;;;22.50;18.25;;;;;4.29;44.03;102100.78;5034343;28;45109;-68
2023/03/01 05:25:16;;;;;;;;;24.75;20.50;;;;;4.35;43.64;102118.81;5032836;28;45275;-65
2023/03/01 05:27:42;;;;;;;;;30.00;23.25;;;;;4.27;44.00;102105.03;5034111;28;44994;-68
2023/03/01 05:30:14;;;;;;;;;24.75;19.25;;;;;4.32;43.97;102103.63;5033632;28;46063;-71
2023/03/01 05:32:47;;;;;;;;;21.75;20.00;;;;;4.35;43.67;102100.31;5031452;28;45392;-74
2023/03/01 05:35:15;;;;;;;;;37.25;22.75;;;;;4.35;43.64;102103.84;5034860;28;45304;-65
2023/03/01 05:37:45;;;;;;;;;25.00;20.00;;;;;4.30;43.79;102105.25;5032300;28;45462;-64
2023/03/01 05:40:16;;;;;;;;;25.75;17.75;;;;;4.24;44.24;102099.53;5030227;28;45445;-70
2023/03/01 05:42:59;;;;;;;;;25.25;19.75;;;;;4.28;44.13;102113.91;5030587;28;45267;-66
2023/03/01 05:45:26;;;;;;;;;20.25;17.25;;;;;4.31;44.12;102099.16;5008446;28;45015;-71
2023/03/01 05:47:54;;;;;;;;;27.75;21.50;;;;;4.29;44.19;102092.84;5032151;28;45315;-70
2023/03/01 05:50:22;;;;;;;;;27.25;23.25;;;;;4.33;44.41;102101.94;5025098;28;45303;-73
2023/03/01 05:52:50;;;;;;;;;28.50;24.00;;;;;4.34;44.27;102101.09;5029610;28;45099;-73
2023/03/01 05:55:17;;;;;;;;;31.75;26.75;;;;;4.29;44.76;102106.09;5020124;28;45061;-67
2023/03/01 05:57:43;;;;;;;;;25.25;22.00;;;;;4.23;44.72;102093.31;5016330;28;45739;-74
2023/03/01 06:00:09;;;;;;;;;25.25;21.75;;;;;4.33;44.78;102108.13;4999459;28;47231;-71
2023/03/01 06:02:35;;;;;;;;;32.25;26.00;;;;;4.32;44.50;102094.78;5016372;28;45859;-66
2023/03/01 06:05:00;;;;;;;;;30.25;24.75;;;;;4.21;44.41;102083.44;5015107;28;45419;-74
2023/03/01 06:07:26;;;;;;;;;24.75;19.75;;;;;4.23;44.66;102095.03;5016857;28;45510;-72
2023/03/01 06:09:51;;;;;;;;;34.75;27.25;;;;;4.21;44.93;102100.22;5007578;28;48596;-74
2023/03/01 06:12:17;;;;;;;;;35.75;26.00;;;;;4.11;44.69;102067.66;5015895;28;45506;-66
2023/03/01 06:14:42;;;;;;;;;31.25;26.75;;;;;4.23;44.79;102081.81;5019678;28;45363;-66
2023/03/01 06:17:07;;;;;;;;;39.50;31.00;;;;;4.24;45.14;102073.09;5015114;28;46644;-67
2023/03/01 06:19:33;;;;;;;;;33.00;30.50;;;;;4.24;44.41;102076.63;5005661;28;46209;-65
2023/03/01 06:21:58;;;;;;;;;36.00;27.25;;;;;4.28;44.63;102076.88;5013404;28;45828;-66
2023/03/01 06:24:24;;;;;;;;;30.25;29.00;;;;;4.27;45.20;102069.72;5015305;28;45808;-65
2023/03/01 06:26:49;;;;;;;;;33.25;29.75;;;;;4.27;44.91;102072.38;5015468;28;45534;-65
2023/03/01 06:29:15;;;;;;;;;31.25;25.00;;;;;4.31;44.86;102071.81;5010937;28;46579;-74
2023/03/01 06:31:40;;;;;;;;;36.00;32.00;;;;;4.32;45.31;102063.94;5014677;28;45582;-65
2023/03/01 06:34:05;;;;;;;;;21.75;21.25;;;;;4.40;45.57;102075.09;5016814;28;45769;-69
2023/03/01 06:36:31;;;;;;;;;23.75;22.75;;;;;4.43;45.49;102076.22;4996263;28;45495;-66
2023/03/01 06:38:56;;;;;;;;;35.00;30.00;;;;;4.44;44.35;102069.25;5017059;28;46270;-66
2023/03/01 06:41:22;;;;;;;;;36.50;30.00;;;;;4.40;44.74;102059.22;5014671;28;45305;-66
2023/03/01 06:43:47;;;;;;;;;39.00;29.25;;;;;4.44;44.27;102061.31;4996314;28;45644;-70
2023/03/01 06:46:12;;;;;;;;;40.25;35.75;;;;;4.46;44.66;102064.06;5014236;28;45519;-67
2023/03/01 06:48:38;;;;;;;;;33.00;28.25;;;;;4.44;44.48;102058.66;5016871;28;47838;-72
2023/03/01 06:51:03;;;;;;;;;31.75;23.00;;;;;4.33;45.13;102038.44;5013679;28;45521;-68
2023/03/01 06:53:29;;;;;;;;;36.25;36.00;;;;;4.42;45.15;102065.53;5014910;28;45797;-63
2023/03/01 06:55:59;;;;;;;;;32.75;30.75;;;;;4.36;45.20;102065.13;5014090;28;45375;-65
2023/03/01 06:58:25;;;;;;;;;41.75;34.25;;;;;4.36;45.58;102063.38;5013551;28;47153;-66
2023/03/01 07:00:51;;;;;;;;;49.00;38.25;;;;;4.35;45.09;102053.59;5014404;28;45581;-62
2023/03/01 07:03:16;;;;;;;;;38.25;28.75;;;;;4.35;45.55;102063.25;5013385;28;45512;-62
2023/03/01 07:05:41;;;;;;;;;37.50;32.50;;;;;4.38;45.32;102052.91;5012035;28;45465;-69
2023/03/01 07:08:07;;;;;;;;;35.75;28.25;;;;;4.17;44.97;102009.94;4996399;28;46121;-65
2023/03/01 07:10:32;;;;;;;;;46.75;41.50;;;;;4.43;45.07;102052.41;5013559;28;50705;-64
2023/03/01 07:12:58;;;;;;;;;53.50;43.25;;;;;4.45;45.34;102044.59;4994779;28;46216;-64
2023/03/01 07:15:24;;;;;;;;;31.25;29.75;;;;;4.51;45.35;102057.38;5013157;28;45585;-63
2023/03/01 07:17:50;;;;;;;;;45.25;36.50;;;;;4.54;45.13;102055.84;5012660;28;46108;-67
2023/03/01 07:20:24;;;;;;;;;31.75;29.00;;;;;4.58;44.84;102055.25;4995313;28;45677;-65
2023/03/01 07:22:53;;;;;;;;;60.25;43.25;;;;;4.56;45.15;102054.22;5013480;28;45300;-64
2023/03/01 07:25:19;;;;;;;;;39.25;34.75;;;;;4.48;45.32;102044.81;5018681;28;45533;-66
2023/03/01 07:27:49;;;;;;;;;55.00;39.25;;;;;4.52;45.25;102057.47;5013853;28;46776;-66
2023/03/01 07:30:14;;;;;;;;;47.75;38.25;;;;;4.55;45.11;102060.34;5013189;28;45667;-69
2023/03/01 07:32:39;;;;;;;;;41.25;36.25;;;;;4.42;45.10;102045.31;5014091;28;45384;-66
2023/03/01 07:35:05;;;;;;;;;46.25;36.25;;;;;4.44;45.16;102058.66;5014645;28;45601;-64
2023/03/01 07:37:31;;;;;;;;;40.00;37.25;;;;;4.45;45.47;102055.19;5008896;28;46904;-67
2023/03/01 07:39:57;;;;;;;;;40.75;30.50;;;;;4.45;45.33;102051.63;5012269;28;45468;-66
2023/03/01 07:42:23;;;;;;;;;36.50;32.50;;;;;4.45;45.29;102043.69;5015076;28;45537;-72
2023/03/01 07:44:48;;;;;;;;;49.50;37.00;;;;;4.57;44.89;102047.19;5012384;28;45562;-68
2023/03/01 07:47:13;;;;;;;;;38.75;35.00;;;;;4.57;45.24;102040.19;4994275;28;47983;-76
2023/03/01 07:49:39;;;;;;;;;53.00;39.25;;;;;4.54;45.35;102049.66;5014158;28;45482;-67
2023/03/01 07:52:04;;;;;;;;;43.75;37.00;;;;;4.52;44.95;102052.19;5020320;28;45937;-70
2023/03/01 07:54:30;;;;;;;;;55.50;42.50;;;;;4.49;45.30;102043.06;5012580;28;45725;-66
2023/03/01 07:56:57;;;;;;;;;50.75;35.00;;;;;4.49;45.23;102032.50;5018043;28;46192;-66
2023/03/01 07:59:28;;;;;;;;;44.75;35.50;;;;;4.56;45.15;102045.38;5011377;28;45634;-64
2023/03/01 08:01:53;;;;;;;;;41.25;33.25;;;;;4.43;44.90;102011.81;5008928;28;45530;-65
2023/03/01 08:04:19;;;;;;;;;52.75;41.75;;;;;4.69;45.14;102049.81;4993438;28;45351;-63
2023/03/01 08:06:44;;;;;;;;;45.00;38.75;;;;;4.69;44.95;102060.41;4993983;28;59890;-67
2023/03/01 08:09:09;;;;;;;;;37.00;33.25;;;;;4.66;44.74;102054.91;5018402;28;45483;-65
2023/03/01 08:11:35;;;;;;;;;41.25;32.50;;;;;4.64;44.67;102046.84;5017966;28;45741;-63
2023/03/01 08:14:00;;;;;;;;;41.50;36.50;;;;;4.73;44.98;102052.78;4989881;28;45637;-70
2023/03/01 08:16:25;;;;;;;;;53.00;40.75;;;;;4.84;44.91;102056.19;5024264;28;45433;-65
2023/03/01 08:18:51;;;;;;;;;50.25;37.00;;;;;4.89;44.45;102048.56;5021067;28;45337;-65
2023/03/01 08:21:18;;;;;;;;;37.75;31.00;;;;;4.97;44.84;102048.28;5028112;28;45267;-67
2023/03/01 08:23:44;;;;;;;;;40.00;35.50;;;;;4.97;44.11;102043.00;5029315;28;45099;-68
2023/03/01 08:26:15;;;;;;;;;49.50;38.75;;;;;5.05;44.24;102053.19;5013145;28;45406;-69
2023/03/01 08:28:42;;;;;;;;;50.50;41.00;;;;;4.75;44.23;101987.63;5010535;28;45454;-70
2023/03/01 08:31:18;;;;;;;;;38.75;34.50;;;;;5.18;43.63;102047.97;5007388;28;45776;-63
2023/03/01 08:33:43;;;;;;;;;40.50;33.50;;;;;5.16;43.81;102038.97;5012578;28;45829;-64
2023/03/01 08:36:09;;;;;;;;;40.75;36.00;;;;;5.11;43.89;102021.84;5011162;28;45548;-65
2023/03/01 08:38:35;;;;;;;;;54.25;39.50;;;;;5.23;43.56;102029.72;5012613;28;45392;-67
2023/03/01 08:41:01;;;;;;;;;40.50;37.25;;;;;5.29;43.65;102046.03;5012796;28;45388;-66
2023/03/01 08:43:27;;;;;;;;;44.75;35.25;;;;;5.27;43.14;102029.13;5012887;28;45560;-69
2023/03/01 08:45:52;;;;;;;;;44.00;36.50;;;;;5.35;43.91;102026.16;4992881;28;47288;-66
2023/03/01 08:48:18;;;;;;;;;50.00;39.00;;;;;5.50;43.73;102025.38;4994283;28;45500;-71
2023/03/01 08:50:44;;;;;;;;;35.75;33.00;;;;;5.53;43.21;102005.28;5008089;28;45618;-67
2023/03/01 08:53:09;;;;;;;;;43.50;36.00;;;;;5.66;43.18;102022.00;5009575;28;45764;-66
2023/03/01 08:55:34;;;;;;;;;42.50;35.75;;;;;5.70;43.23;102018.75;5010949;28;47187;-67
2023/03/01 08:57:59;;;;;;;;;36.25;29.50;;;;;5.77;42.82;102014.78;5018448;28;45429;-67
2023/03/01 09:00:25;;;;;;;;;34.00;30.25;;;;;5.83;42.81;102012.53;5010920;28;45569;-66
2023/03/01 09:02:50;;;;;;;;;34.00;31.75;;;;;5.86;42.07;102004.78;5012632;28;45453;-64
2023/03/01 09:05:16;;;;;;;;;44.75;37.00;;;;;5.86;41.87;102012.75;4994827;28;46019;-70
2023/03/01 09:07:41;;;;;;;;;57.25;42.75;;;;;5.74;42.50;101973.06;5013149;28;45369;-70
2023/03/01 09:10:07;;;;;;;;;37.00;33.50;;;;;5.90;41.47;101988.25;5016241;28;45373;-64
2023/03/01 09:12:32;;;;;;;;;41.00;35.75;;;;;5.95;41.37;101986.81;5016103;28;45495;-64
2023/03/01 09:14:58;;;;;;;;;47.25;39.00;;;;;5.97;42.07;101992.25;5016019;28;45376;-65
2023/03/01 09:17:23;;;;;;;;;37.25;32.75;;;;;5.77;42.21;101945.84;5016267;28;45300;-69
2023/03/01 09:19:49;;;;;;;;;50.00;38.75;;;;;6.04;41.65;101974.19;5016461;28;45352;-66
2023/03/01 09:22:14;;;;;;;;;37.00;33.50;;;;;6.13;41.51;101976.50;5017980;28;45494;-69
2023/03/01 09:24:40;;;;;;;;;40.50;33.50;;;;;6.13;41.13;101976.50;5016545;28;46144;-65
2023/03/01 09:27:08;;;;;;;;;47.00;38.25;;;;;6.12;41.33;101982.66;5016024;28;45308;-65
2023/03/01 09:29:35;;;;;;;;;41.75;37.50;;;;;6.14;41.60;101972.09;5016077;28;45610;-63
2023/03/01 09:32:01;;;;;;;;;48.75;39.00;;;;;6.20;41.69;101976.09;5016089;28;45403;-64
2023/03/01 09:34:26;;;;;;;;;49.00;36.75;;;;;6.25;41.39;101968.41;5014612;28;45749;-67
2023/03/01 09:36:52;;;;;;;;;39.75;34.50;;;;;6.37;41.42;101969.19;5015817;28;45646;-64
2023/03/01 09:39:18;;;;;;;;;43.75;36.25;;;;;6.41;40.46;101970.28;5015606;28;45412;-65
2023/03/01 09:41:59;;;;;;;;;41.25;36.00;;;;;6.51;40.99;101971.78;5015970;28;45388;-65
2023/03/01 09:44:40;;;;;;;;;37.25;29.25;;;;;6.62;40.79;101966.31;5015888;28;46083;-66
2023/03/01 09:47:12;;;;;;;;;47.00;33.75;;;;;6.67;40.21;101950.69;5021162;28;45531;-66
2023/03/01 09:49:48;;;;;;;;;37.75;34.50;;;;;6.77;39.84;101938.88;4997094;28;45812;-67
2023/03/01 09:52:32;;;;;;;;;38.75;32.75;;;;;7.08;39.56;101954.94;5014930;28;45459;-70
2023/03/01 09:54:57;;;;;;;;;42.75;34.50;;;;;7.19;39.37;101953.84;4997308;28;48328;-68
2023/03/01 09:57:43;;;;;;;;;36.25;29.75;;;;;7.30;39.75;101949.13;5015140;28;45443;-67
2023/03/01 10:00:35;;;;;;;;;26.50;24.75;;;;;7.36;39.08;101949.50;5009598;28;45507;-65
2023/03/01 10:03:09;;;;;;;;;36.50;32.25;;;;;7.33;38.90;101943.09;5015639;28;45400;-70
2023/03/01 10:05:56;;;;;;;;;36.75;29.50;;;;;7.29;38.74;101927.78;5008639;28;46173;-73
2023/03/01 10:08:37;;;;;;;;;45.50;34.25;;;;;7.32;39.05;101928.88;5015814;28;45554;-71
2023/03/01 10:11:06;;;;;;;;;41.75;38.00;;;;;7.33;38.68;101932.47;5011984;28;45843;-71
2023/03/01 10:13:45;;;;;;;;;45.50;36.00;;;;;7.39;38.94;101938.13;5012847;28;45750;-72
2023/03/01 10:16:26;;;;;;;;;44.50;35.50;;;;;7.47;38.64;101928.84;5013473;28;46094;-71
2023/03/01 10:19:03;;;;;;;;;43.25;35.25;;;;;7.47;39.04;101898.69;4997820;28;45971;-72
2023/03/01 10:21:31;;;;;;;;;37.25;31.75;;;;;7.76;38.48;101911.00;5015139;28;45558;-71
2023/03/01 10:24:10;;;;;;;;;38.00;33.25;;;;;7.93;38.29;101914.59;5006166;28;45386;-70
2023/03/01 10:26:57;;;;;;;;;44.25;35.00;;;;;8.28;37.90;101904.97;5014970;28;46605;-71
2023/03/01 10:29:40;;;;;;;;;39.25;35.25;;;;;8.59;36.52;101898.66;5014515;28;45661;-71
2023/03/01 10:32:06;;;;;;;;;45.00;37.50;;;;;8.71;37.26;101893.06;4997748;28;45436;-70
2023/03/01 10:34:35;;;;;;;;;40.00;33.00;;;;;8.78;36.24;101908.56;5015515;28;45450;-70
2023/03/01 10:37:12;;;;;;;;;46.25;36.50;;;;;8.72;36.38;101903.78;5016180;28;46153;-71
2023/03/01 10:39:58;;;;;;;;;40.50;33.50;;;;;8.64;36.84;101914.03;5008574;28;45696;-69
2023/03/01 10:42:29;;;;;;;;;33.75;32.00;;;;;8.54;36.16;101914.38;5008971;28;45567;-70
2023/03/01 10:44:55;;;;;;;;;41.75;33.25;;;;;8.39;36.66;101895.81;5012522;28;45529;-69
2023/03/01 10:47:24;;;;;;;;;36.25;31.50;;;;;8.40;36.62;101907.41;5013621;28;45252;-69
2023/03/01 10:49:54;;;;;;;;;37.50;30.50;;;;;8.29;36.65;101891.72;4995926;28;45482;-70
2023/03/01 10:52:23;;;;;;;;;40.00;33.00;;;;;8.31;36.98;101905.13;5014793;28;45385;-69
2023/03/01 10:54:58;;;;;;;;;37.25;31.00;;;;;8.29;36.31;101896.16;5018839;28;45550;-70
2023/03/01 10:57:30;;;;;;;;;42.00;34.50;;;;;8.24;37.08;101893.25;5016718;28;46434;-70
2023/03/01 11:00:24;;;;;;;;;38.00;32.75;;;;;7.97;36.48;101850.09;5014337;28;45380;-70
2023/03/01 11:03:10;;;;;;;;;52.00;40.00;;;;;8.23;37.23;101898.47;4994433;28;45606;-71
2023/03/01 11:05:36;;;;;;;;;44.00;37.00;;;;;8.24;37.02;101879.94;5016118;28;45655;-71
2023/03/01 11:08:03;;;;;;;;;42.50;34.25;;;;;8.30;36.90;101892.69;5020502;28;45644;-70
2023/03/01 11:10:33;;;;;;;;;58.50;45.00;;;;;8.36;37.73;101889.41;5014173;28;45711;-70
2023/03/01 11:13:16;;;;;;;;;38.25;35.00;;;;;8.38;37.37;101893.06;5013609;28;45619;-70
2023/03/01 11:15:42;;;;;;;;;36.75;33.75;;;;;8.10;36.32;101825.97;5007387;28;45860;-71
2023/03/01 11:18:23;;;;;;;;;41.50;34.00;;;;;8.41;36.51;101864.84;5025630;28;45406;-72
2023/03/01 11:20:53;;;;;;;;;41.25;31.75;;;;;8.52;37.02;101877.88;5026186;28;46220;-72
2023/03/01 11:23:19;;;;;;;;;32.00;30.75;;;;;8.49;36.50;101860.88;5027838;28;45085;-71